Time;durP1;ratioP1;P1;durP2;ratioP2;P2;SDS_P1;SDS_P2;PMS_P1;PMS_P2;Temp;Humidity;BMP_temperature;BMP_pressure;BME280_temperature;BME280_humidity;BME280_pressure;Samples;Min_cycle;Max_cycle;Signal;HPM_P1;HPM_P2
2021/09/07 00:00:33;;;;;;;7.60;4.15;;;14.40;99.90;;;;;;5010566;28;19926;-76
2021/09/07 00:02:59;;;;;;;5.22;3.83;;;14.40;99.90;;;;;;4984389;28;20052;-76
2021/09/07 00:05:24;;;;;;;;;;;14.40;99.90;;;;;;4985522;28;20125;-74
2021/09/07 00:07:50;;;;;;;5.47;3.58;;;14.50;99.90;;;;;;5006980;28;19917;-74
2021/09/07 00:10:16;;;;;;;;;;;14.50;99.90;;;;;;5002672;28;20042;-75
2021/09/07 00:12:42;;;;;;;6.57;4.00;;;14.50;99.90;;;;;;5014563;28;20075;-75
2021/09/07 00:15:09;;;;;;;;;;;14.50;99.90;;;;;;4991641;28;20049;-74
2021/09/07 00:17:35;;;;;;;5.55;2.80;;;14.50;99.90;;;;;;5027281;28;19925;-74
2021/09/07 00:20:00;;;;;;;;;;;14.50;99.90;;;;;;5002236;28;20042;-74
2021/09/07 00:22:26;;;;;;;7.40;3.00;;;14.60;99.90;;;;;;5011075;28;19921;-74
2021/09/07 00:24:52;;;;;;;5.18;3.63;;;14.50;99.90;;;;;;4992231;28;20030;-74
2021/09/07 00:27:18;;;;;;;4.93;4.18;;;14.50;99.90;;;;;;4999673;28;20054;-75
2021/09/07 00:29:43;;;;;;;;;;;14.60;99.90;;;;;;4986714;28;20049;-75
2021/09/07 00:32:09;;;;;;;5.88;4.35;;;14.60;99.90;;;;;;5013819;28;19924;-75
2021/09/07 00:34:35;;;;;;;;;;;14.60;99.90;;;;;;4977292;28;20050;-75
2021/09/07 00:37:04;;;;;;;8.65;4.55;;;14.70;99.90;;;;;;4982950;28;20013;-75
2021/09/07 00:39:29;;;;;;;3.20;2.55;;;14.60;99.90;;;;;;5001845;28;20047;-75
2021/09/07 00:41:55;;;;;;;4.97;2.60;;;14.70;99.90;;;;;;4997200;28;20098;-75
2021/09/07 00:44:25;;;;;;;10.10;4.47;;;14.70;99.90;;;;;;4990226;28;20058;-75
2021/09/07 00:46:57;;;;;;;5.07;3.15;;;14.70;99.90;;;;;;4994182;28;20531;-75
2021/09/07 00:49:24;;;;;;;5.18;4.32;;;14.70;99.90;;;;;;4994844;28;20050;-75
2021/09/07 00:51:52;;;;;;;5.22;3.03;;;14.70;99.90;;;;;;4989970;28;20042;-75
2021/09/07 00:54:20;;;;;;;5.13;3.33;;;14.70;99.90;;;;;;4996455;28;20053;-75
2021/09/07 00:56:46;;;;;;;10.15;4.13;;;14.70;99.90;;;;;;4989836;28;20054;-75
2021/09/07 00:59:13;;;;;;;14.50;4.28;;;14.70;99.90;;;;;;4991736;28;20038;-75
2021/09/07 01:01:39;;;;;;;4.07;3.38;;;14.70;99.90;;;;;;5014177;28;20502;-75
2021/09/07 01:04:05;;;;;;;7.90;3.72;;;14.70;99.90;;;;;;4992748;28;20461;-75
2021/09/07 01:06:31;;;;;;;;;;;14.80;99.90;;;;;;5009707;28;20121;-75
2021/09/07 01:08:58;;;;;;;3.63;2.88;;;14.80;99.90;;;;;;5030062;28;19922;-75
2021/09/07 01:11:23;;;;;;;6.43;3.70;;;14.80;99.90;;;;;;4993496;28;20514;-75
2021/09/07 01:13:49;;;;;;;6.70;4.50;;;14.80;99.90;;;;;;5008414;28;20103;-75
2021/09/07 01:16:15;;;;;;;;;;;14.80;99.90;;;;;;4999008;28;20722;-75
2021/09/07 01:18:41;;;;;;;6.70;4.50;;;14.80;99.90;;;;;;4985812;28;19921;-75
2021/09/07 01:21:12;;;;;;;5.85;4.00;;;14.80;99.90;;;;;;5010011;28;20112;-75
2021/09/07 01:23:41;;;;;;;6.13;4.07;;;14.80;99.90;;;;;;5019639;28;20046;-75
2021/09/07 01:26:07;;;;;;;6.07;4.32;;;14.80;99.90;;;;;;5000709;28;20049;-75
2021/09/07 01:28:34;;;;;;;12.80;4.93;;;14.90;99.90;;;;;;5004613;28;20064;-75
2021/09/07 01:31:01;;;;;;;6.75;4.22;;;14.90;99.90;;;;;;5003223;28;20043;-75
2021/09/07 01:33:27;;;;;;;8.18;3.80;;;14.90;99.90;;;;;;5001269;28;20050;-74
2021/09/07 01:35:57;;;;;;;7.55;4.72;;;15.00;99.90;;;;;;4976678;28;20057;-74
2021/09/07 01:38:25;;;;;;;9.38;4.35;;;15.00;99.90;;;;;;4986521;28;20056;-74
2021/09/07 01:40:52;;;;;;;8.20;5.15;;;15.00;99.90;;;;;;4998790;28;20468;-74
2021/09/07 01:43:18;;;;;;;10.52;4.43;;;15.00;99.90;;;;;;4965775;28;20073;-74
2021/09/07 01:45:45;;;;;;;6.63;4.13;;;15.00;99.90;;;;;;4976656;28;20538;-75
2021/09/07 01:48:12;;;;;;;7.90;4.55;;;15.10;99.90;;;;;;4995810;28;20054;-74
2021/09/07 01:50:38;;;;;;;8.80;4.15;;;15.10;99.90;;;;;;4992684;28;20372;-74
2021/09/07 01:53:03;;;;;;;6.32;4.63;;;15.10;99.90;;;;;;4999204;28;20046;-74
2021/09/07 01:55:29;;;;;;;;;;;15.00;99.90;;;;;;4998454;28;20385;-74
2021/09/07 01:57:55;;;;;;;9.13;4.22;;;15.00;99.90;;;;;;4999563;28;19976;-74
2021/09/07 02:00:20;;;;;;;;;;;15.00;99.90;;;;;;5000036;28;20366;-74
2021/09/07 02:02:46;;;;;;;7.47;5.00;;;15.10;99.90;;;;;;5043034;28;20363;-74
2021/09/07 02:05:11;;;;;;;;;;;15.10;99.90;;;;;;4999066;28;20144;-74
2021/09/07 02:07:37;;;;;;;8.85;4.47;;;15.10;99.90;;;;;;4997997;28;19921;-74
2021/09/07 02:10:03;;;;;;;;;;;15.00;99.90;;;;;;4982477;28;20114;-74
2021/09/07 02:12:29;;;;;;;9.40;4.70;;;15.10;99.90;;;;;;5028220;28;19925;-74
2021/09/07 02:14:56;;;;;;;8.27;4.93;;;15.10;99.90;;;;;;4997870;28;20041;-74
2021/09/07 02:17:24;;;;;;;7.43;5.05;;;15.10;99.90;;;;;;4996052;28;20034;-74
2021/09/07 02:19:53;;;;;;;6.88;4.05;;;15.10;99.90;;;;;;4996879;28;20492;-74
2021/09/07 02:22:20;;;;;;;7.78;4.28;;;15.10;99.90;;;;;;4994558;28;20386;-74
2021/09/07 02:24:46;;;;;;;6.63;3.92;;;15.10;99.90;;;;;;4985495;28;20045;-74
2021/09/07 02:27:11;;;;;;;7.18;4.88;;;15.10;99.90;;;;;;5000010;28;20563;-74
2021/09/07 02:29:37;;;;;;;;;;;15.10;99.90;;;;;;5003193;28;20131;-74
2021/09/07 02:32:04;;;;;;;7.00;4.30;;;15.10;99.90;;;;;;4985867;28;19929;-74
2021/09/07 02:34:29;;;;;;;6.72;4.05;;;15.20;99.90;;;;;;4979575;28;20133;-74
2021/09/07 02:36:55;;;;;;;6.93;4.72;;;15.20;99.90;;;;;;4979126;28;20567;-74
2021/09/07 02:39:21;;;;;;;;;;;15.20;99.90;;;;;;5011392;28;20042;-74
2021/09/07 02:41:47;;;;;;;12.13;4.93;;;15.20;99.90;;;;;;5005207;28;19921;-74
2021/09/07 02:44:12;;;;;;;;;;;15.20;99.90;;;;;;4997588;28;20038;-74
2021/09/07 02:46:38;;;;;;;6.68;4.22;;;15.20;99.90;;;;;;4991681;28;19968;-74
2021/09/07 02:49:03;;;;;;;;;;;15.20;99.90;;;;;;4963900;28;20156;-74
2021/09/07 02:51:29;;;;;;;11.48;4.90;;;15.20;99.90;;;;;;4975471;28;19918;-74
2021/09/07 02:53:55;;;;;;;12.18;6.25;;;15.20;99.90;;;;;;4991078;28;20041;-74
2021/09/07 02:56:20;;;;;;;;;;;15.20;99.90;;;;;;4980934;28;20128;-74
2021/09/07 02:58:46;;;;;;;9.02;4.70;;;15.20;99.90;;;;;;4976414;28;19921;-74
2021/09/07 03:01:12;;;;;;;;;;;15.20;99.90;;;;;;4996899;28;20070;-74
2021/09/07 03:03:37;;;;;;;7.60;5.18;;;15.20;99.90;;;;;;4984612;28;19917;-74
2021/09/07 03:06:03;;;;;;;;;;;15.20;99.90;;;;;;4993174;28;20500;-74
2021/09/07 03:08:30;;;;;;;6.57;5.70;;;15.20;99.90;;;;;;5005238;28;20359;-74
2021/09/07 03:10:56;;;;;;;9.98;4.50;;;15.20;99.90;;;;;;4990821;28;20046;-74
2021/09/07 03:13:22;;;;;;;5.20;4.20;;;15.20;99.90;;;;;;4971870;28;20168;-74
2021/09/07 03:15:48;;;;;;;7.68;4.40;;;15.20;99.90;;;;;;4991009;28;20125;-74
2021/09/07 03:18:15;;;;;;;;;;;15.10;99.90;;;;;;4988107;28;20126;-74
2021/09/07 03:20:40;;;;;;;9.20;4.68;;;15.20;99.90;;;;;;4991465;28;19918;-74
2021/09/07 03:23:06;;;;;;;4.55;3.20;;;15.10;99.90;;;;;;4998820;28;20049;-74
2021/09/07 03:25:32;;;;;;;;;;;15.10;99.90;;;;;;4992146;28;20559;-74
2021/09/07 03:27:58;;;;;;;6.85;5.00;;;15.10;99.90;;;;;;5000877;28;19921;-74
2021/09/07 03:30:24;;;;;;;10.05;4.57;;;15.10;99.90;;;;;;4991579;28;20046;-74
2021/09/07 03:32:51;;;;;;;9.40;4.63;;;15.10;99.90;;;;;;5001628;28;20037;-75
2021/09/07 03:35:17;;;;;;;6.78;5.55;;;15.10;99.90;;;;;;5010853;28;20050;-75
2021/09/07 03:37:44;;;;;;;9.13;4.63;;;15.10;99.90;;;;;;4989773;28;20048;-75
2021/09/07 03:40:10;;;;;;;;;;;15.10;99.90;;;;;;4991413;28;20102;-75
2021/09/07 03:42:36;;;;;;;6.82;4.22;;;15.10;99.90;;;;;;4995345;28;20047;-75
2021/09/07 03:45:03;;;;;;;;;;;15.10;99.90;;;;;;4974315;28;20117;-75
2021/09/07 03:47:29;;;;;;;6.10;4.13;;;15.10;99.90;;;;;;5037181;28;19917;-75
2021/09/07 03:49:54;;;;;;;;;;;15.10;99.90;;;;;;4990438;28;20038;-75
2021/09/07 03:52:20;;;;;;;10.20;3.85;;;15.10;99.90;;;;;;5001953;28;19940;-75
2021/09/07 03:54:45;;;;;;;;;;;15.20;99.90;;;;;;4979170;28;20519;-75
2021/09/07 03:57:11;;;;;;;5.68;3.92;;;15.10;99.90;;;;;;5018763;28;19918;-75
2021/09/07 03:59:37;;;;;;;9.05;4.85;;;15.10;99.90;;;;;;4974572;28;20520;-75
2021/09/07 04:02:02;;;;;;;;;;;15.20;99.90;;;;;;5004473;28;20037;-75
2021/09/07 04:04:28;;;;;;;4.82;3.65;;;15.20;99.90;;;;;;4990499;28;19960;-75
2021/09/07 04:06:54;;;;;;;;;;;15.20;99.90;;;;;;5000324;28;20045;-75
2021/09/07 04:09:22;;;;;;;5.75;3.17;;;15.20;99.90;;;;;;4996710;28;20277;-75
2021/09/07 04:11:48;;;;;;;8.43;4.63;;;15.20;99.90;;;;;;4994984;28;20129;-74
2021/09/07 04:14:14;;;;;;;5.43;3.55;;;15.20;99.90;;;;;;4979289;28;20463;-75
2021/09/07 04:16:39;;;;;;;7.80;4.15;;;15.20;99.90;;;;;;4992433;28;20052;-75
2021/09/07 04:19:05;;;;;;;;;;;15.20;99.90;;;;;;4990672;28;20453;-74
2021/09/07 04:21:31;;;;;;;8.07;4.55;;;15.20;99.90;;;;;;5002360;28;20000;-75
2021/09/07 04:23:56;;;;;;;;;;;15.20;99.90;;;;;;5010123;28;20116;-75
2021/09/07 04:26:22;;;;;;;5.63;3.88;;;15.20;99.90;;;;;;4997745;28;19975;-75
2021/09/07 04:28:48;;;;;;;;;;;15.20;99.90;;;;;;5001213;28;20060;-75
2021/09/07 04:31:13;;;;;;;6.88;3.50;;;15.20;99.90;;;;;;4982939;28;19917;-75
2021/09/07 04:33:39;;;;;;;8.73;3.65;;;15.20;99.90;;;;;;4980013;28;20110;-75
2021/09/07 04:36:05;;;;;;;8.35;3.45;;;15.20;99.90;;;;;;4978787;28;20050;-76
2021/09/07 04:38:30;;;;;;;5.10;3.90;;;15.20;99.90;;;;;;4973492;28;20038;-75
2021/09/07 04:40:56;;;;;;;7.65;4.20;;;15.20;99.90;;;;;;5009651;28;20502;-75
2021/09/07 04:43:22;;;;;;;;;;;15.20;99.90;;;;;;5010351;28;20056;-75
2021/09/07 04:45:47;;;;;;;5.63;3.83;;;15.20;99.90;;;;;;4993214;28;19960;-76
2021/09/07 04:48:13;;;;;;;;;;;15.30;99.90;;;;;;5009789;28;20426;-74
2021/09/07 04:50:39;;;;;;;12.57;3.63;;;15.30;99.90;;;;;;5029933;28;19990;-75
2021/09/07 04:53:05;;;;;;;;;;;15.20;99.90;;;;;;5012610;28;20388;-74
2021/09/07 04:55:30;;;;;;;8.18;4.03;;;15.30;99.90;;;;;;4993530;28;19924;-74
2021/09/07 04:57:56;;;;;;;;;;;15.20;99.90;;;;;;5023183;28;20419;-75
2021/09/07 05:00:22;;;;;;;5.90;4.05;;;15.20;99.90;;;;;;5043816;28;19956;-74
2021/09/07 05:02:48;;;;;;;6.35;2.88;;;15.20;99.90;;;;;;5011340;28;20080;-74
2021/09/07 05:05:13;;;;;;;4.15;2.97;;;15.20;99.90;;;;;;5014464;28;20034;-74
2021/09/07 05:07:39;;;;;;;;;;;15.20;99.90;;;;;;4997012;28;20111;-75
2021/09/07 05:10:06;;;;;;;6.65;3.22;;;15.20;99.90;;;;;;5040228;28;19918;-75
2021/09/07 05:12:31;;;;;;;5.88;3.65;;;15.20;99.90;;;;;;4996642;28;20554;-74
2021/09/07 05:14:57;;;;;;;4.50;3.08;;;15.20;99.90;;;;;;4996202;28;20034;-75
2021/09/07 05:17:23;;;;;;;;;;;15.20;99.90;;;;;;4964565;28;20480;-75
2021/09/07 05:19:49;;;;;;;3.85;2.92;;;15.30;99.90;;;;;;5045152;28;19956;-74
2021/09/07 05:22:14;;;;;;;;;;;15.30;99.90;;;;;;4998359;28;20117;-75
2021/09/07 05:24:40;;;;;;;4.97;3.35;;;15.30;99.90;;;;;;5029678;28;19918;-74
2021/09/07 05:27:06;;;;;;;;;;;15.30;99.90;;;;;;5012706;28;20133;-74
2021/09/07 05:29:31;;;;;;;6.50;3.88;;;15.30;99.90;;;;;;4996437;28;19967;-74
2021/09/07 05:31:57;;;;;;;;;;;15.30;99.90;;;;;;5009003;28;20077;-74
2021/09/07 05:34:23;;;;;;;4.38;2.65;;;15.30;99.90;;;;;;4996293;28;20264;-75
2021/09/07 05:36:49;;;;;;;;;;;15.40;99.90;;;;;;5012927;28;20041;-75
2021/09/07 05:39:14;;;;;;;4.32;2.95;;;15.40;99.90;;;;;;4996332;28;19975;-75
2021/09/07 05:41:40;;;;;;;3.70;2.72;;;15.40;99.90;;;;;;5002027;28;20038;-75
2021/09/07 05:44:06;;;;;;;;;;;15.50;99.90;;;;;;4993590;28;20129;-75
2021/09/07 05:46:33;;;;;;;3.15;2.30;;;15.50;99.90;;;;;;5007530;28;19996;-75
2021/09/07 05:48:58;;;;;;;4.75;2.70;;;15.50;99.90;;;;;;5008615;28;20565;-75
2021/09/07 05:51:24;;;;;;;5.18;3.63;;;15.60;99.90;;;;;;5000026;28;20129;-74
2021/09/07 05:53:50;;;;;;;;;;;15.50;99.90;;;;;;4996706;28;20091;-75
2021/09/07 05:56:17;;;;;;;8.55;3.45;;;15.60;99.90;;;;;;4982858;28;19917;-75
2021/09/07 05:58:43;;;;;;;8.00;3.47;;;15.70;99.90;;;;;;5003992;28;20065;-75
2021/09/07 06:01:09;;;;;;;6.25;2.97;;;15.70;99.90;;;;;;4996652;28;20404;-74
2021/09/07 06:03:34;;;;;;;;;;;15.80;99.90;;;;;;5002170;28;20050;-75
2021/09/07 06:06:00;;;;;;;3.70;2.67;;;15.80;99.90;;;;;;5024817;28;20370;-74
2021/09/07 06:08:28;;;;;;;;;;;15.90;99.90;;;;;;5005015;28;20052;-75
2021/09/07 06:10:54;;;;;;;;;;;15.90;99.90;;;;;;4994929;28;19918;-75
2021/09/07 06:13:21;;;;;;;5.65;3.03;;;16.00;99.90;;;;;;5026131;28;19921;-75
2021/09/07 06:15:47;;;;;;;4.03;3.33;;;16.10;99.90;;;;;;4989800;28;20134;-74
2021/09/07 06:18:13;;;;;;;;;;;16.10;99.90;;;;;;4995911;28;20444;-74
2021/09/07 06:20:38;;;;;;;10.00;4.40;;;16.20;99.90;;;;;;4983622;28;20020;-74
2021/09/07 06:23:04;;;;;;;;;;;16.20;99.90;;;;;;4977568;28;20435;-73
2021/09/07 06:25:29;;;;;;;5.63;3.83;;;16.30;99.90;;;;;;5007517;28;19935;-73
2021/09/07 06:27:55;;;;;;;;;;;16.40;99.90;;;;;;5009504;28;20116;-74
2021/09/07 06:30:29;;;;;;;7.50;4.35;;;16.50;99.90;;;;;;5044249;28;19917;-75
2021/09/07 06:32:55;;;;;;;7.65;3.78;;;16.60;99.90;;;;;;5011169;28;20041;-74
2021/09/07 06:35:21;;;;;;;5.78;4.03;;;16.70;99.90;;;;;;4993102;28;20112;-78
2021/09/07 06:37:48;;;;;;;;;;;16.70;99.90;;;;;;4990318;28;20058;-74
2021/09/07 06:40:14;;;;;;;11.93;4.00;;;16.80;99.90;;;;;;5008147;28;19949;-74
2021/09/07 06:42:39;;;;;;;;;;;16.80;99.90;;;;;;5009576;28;20202;-74
2021/09/07 06:45:06;;;;;;;7.50;3.47;;;16.90;99.90;;;;;;5038043;28;19923;-74
2021/09/07 06:47:32;;;;;;;8.35;4.30;;;16.90;99.90;;;;;;4987594;28;20057;-74
2021/09/07 06:50:00;;;;;;;;;;;16.90;99.90;;;;;;5003771;28;20042;-79
2021/09/07 06:52:27;;;;;;;4.53;3.60;;;16.90;99.90;;;;;;4990724;28;19983;-76
2021/09/07 06:54:53;;;;;;;7.35;4.40;;;16.90;99.90;;;;;;4991991;28;20033;-74
2021/09/07 06:57:18;;;;;;;;;;;16.90;99.90;;;;;;5008280;28;20044;-78
2021/09/07 06:59:44;;;;;;;4.28;3.60;;;16.80;99.90;;;;;;5016467;28;19925;-75
2021/09/07 07:02:09;;;;;;;;;;;16.80;99.90;;;;;;5003829;28;20109;-75
2021/09/07 07:04:35;;;;;;;3.58;2.65;;;16.70;99.90;;;;;;5025161;28;19966;-75
2021/09/07 07:07:01;;;;;;;;;;;16.70;99.90;;;;;;4992644;28;20153;-76
2021/09/07 07:09:26;;;;;;;11.50;3.92;;;16.70;99.90;;;;;;5043746;28;19921;-75
2021/09/07 07:11:52;;;;;;;;;;;16.60;99.90;;;;;;5010016;28;20037;-76
2021/09/07 07:14:21;;;;;;;6.45;3.30;;;16.60;99.90;;;;;;4973633;28;20363;-74
2021/09/07 07:16:48;;;;;;;3.95;3.15;;;16.60;99.90;;;;;;5008141;28;20430;-73
2021/09/07 07:19:14;;;;;;;10.93;3.53;;;16.60;99.90;;;;;;5004814;28;20038;-76
2021/09/07 07:21:40;;;;;;;;;;;16.70;99.90;;;;;;4990163;28;20057;-74
2021/09/07 07:24:05;;;;;;;3.90;3.58;;;16.90;99.90;;;;;;4986664;28;19925;-75
2021/09/07 07:26:31;;;;;;;;;;;17.00;99.90;;;;;;4991131;28;20062;-73
2021/09/07 07:28:57;;;;;;;5.40;3.28;;;17.10;99.90;;;;;;5040919;28;19925;-75
2021/09/07 07:31:22;;;;;;;;;;;17.20;99.90;;;;;;5010910;28;20090;-75
2021/09/07 07:33:48;;;;;;;3.83;3.22;;;17.30;99.90;;;;;;5010488;28;19922;-75
2021/09/07 07:36:14;;;;;;;;;;;17.50;99.90;;;;;;4994167;28;20041;-76
2021/09/07 07:38:39;;;;;;;5.03;3.05;;;17.60;99.90;;;;;;5004564;28;19925;-75
2021/09/07 07:41:05;;;;;;;;;;;17.80;99.90;;;;;;4991970;28;20053;-76
2021/09/07 07:43:33;;;;;;;8.70;4.95;;;18.00;99.90;;;;;;5040858;28;20425;-79
2021/09/07 07:45:59;;;;;;;10.75;3.10;;;18.10;99.90;;;;;;4990670;28;20049;-78
2021/09/07 07:48:25;;;;;;;;;;;18.30;99.90;;;;;;4990541;28;20046;-78
2021/09/07 07:50:50;;;;;;;5.13;4.00;;;18.50;99.90;;;;;;5006442;28;19971;-79
2021/09/07 07:53:16;;;;;;;;;;;18.60;99.90;;;;;;5007129;28;20132;-77
2021/09/07 07:55:42;;;;;;;3.28;2.83;;;18.70;99.90;;;;;;5036702;28;19975;-77
2021/09/07 07:58:07;;;;;;;;;;;18.80;99.90;;;;;;5007529;28;20056;-77
2021/09/07 08:00:33;;;;;;;5.60;2.72;;;19.00;99.90;;;;;;5007791;28;19921;-79
2021/09/07 08:02:59;;;;;;;5.57;3.50;;;19.00;99.90;;;;;;5007588;28;20033;-78
2021/09/07 08:05:24;;;;;;;5.53;3.67;;;19.10;99.90;;;;;;5004960;28;20506;-77
2021/09/07 08:07:50;;;;;;;;;;;19.20;99.90;;;;;;4970471;28;20108;-76
2021/09/07 08:10:16;;;;;;;6.80;3.95;;;19.20;99.90;;;;;;5008198;28;19925;-79
2021/09/07 08:12:42;;;;;;;7.40;2.92;;;19.30;99.90;;;;;;4991589;28;20046;-75
2021/09/07 08:15:08;;;;;;;8.32;4.20;;;19.40;99.90;;;;;;5008464;28;20046;-77
2021/09/07 08:17:34;;;;;;;6.43;3.20;;;19.50;99.90;;;;;;5005805;28;20046;-78
2021/09/07 08:20:00;;;;;;;9.10;4.53;;;19.60;99.90;;;;;;4990809;28;20092;-78
2021/09/07 08:22:25;;;;;;;;;;;19.80;99.90;;;;;;5010888;28;20099;-76
2021/09/07 08:24:51;;;;;;;6.05;3.70;;;19.90;99.90;;;;;;5012661;28;19972;-76
2021/09/07 08:27:17;;;;;;;6.38;3.58;;;20.00;99.90;;;;;;5006683;28;20064;-77
2021/09/07 08:29:43;;;;;;;6.50;3.88;;;20.10;99.90;;;;;;5007584;28;20396;-77
2021/09/07 08:32:08;;;;;;;;;;;20.20;99.90;;;;;;4994281;28;20049;-76
2021/09/07 08:34:34;;;;;;;6.28;3.08;;;20.20;99.90;;;;;;4996458;28;20336;-76
2021/09/07 08:37:01;;;;;;;7.55;3.40;;;20.30;99.90;;;;;;5012562;28;20052;-78
2021/09/07 08:39:27;;;;;;;7.28;3.00;;;20.40;99.90;;;;;;5010247;28;20109;-75
2021/09/07 08:41:53;;;;;;;4.45;3.05;;;20.40;99.90;;;;;;4995412;28;20699;-80
2021/09/07 08:44:19;;;;;;;;;;;20.50;99.90;;;;;;4992259;28;20709;-78
2021/09/07 08:46:45;;;;;;;5.45;2.85;;;20.60;99.90;;;;;;5010588;28;19928;-76
2021/09/07 08:49:13;;;;;;;4.30;2.58;;;20.60;99.90;;;;;;5010059;28;20369;-77
2021/09/07 08:51:38;;;;;;;7.32;3.45;;;20.70;99.90;;;;;;5010478;28;20471;-77
2021/09/07 08:54:04;;;;;;;4.35;2.97;;;20.70;99.90;;;;;;5004202;28;20109;-76
2021/09/07 08:56:30;;;;;;;6.20;3.97;;;20.80;99.90;;;;;;5011100;28;20092;-76
2021/09/07 08:58:56;;;;;;;6.18;3.85;;;20.90;99.90;;;;;;5010644;28;20046;-78
2021/09/07 09:01:21;;;;;;;;;;;21.00;99.90;;;;;;5011139;28;20068;-76
2021/09/07 09:03:48;;;;;;;5.97;3.80;;;21.10;99.90;;;;;;5009914;28;20359;-76
2021/09/07 09:06:24;;;;;;;4.60;2.97;;;21.20;99.90;;;;;;5010004;28;20052;-77
2021/09/07 09:09:06;;;;;;;4.70;2.22;;;21.30;99.90;;;;;;5011052;28;20123;-78
2021/09/07 09:11:52;;;;;;;3.72;2.33;;;21.40;99.90;;;;;;5010747;28;20049;-78
2021/09/07 09:14:32;;;;;;;8.65;3.13;;;21.40;99.90;;;;;;5010307;28;20050;-76
2021/09/07 09:16:58;;;;;;;7.60;2.72;;;21.40;99.90;;;;;;5009142;28;20085;-77
2021/09/07 09:19:24;;;;;;;5.28;3.28;;;21.40;99.90;;;;;;5009777;28;20681;-76
2021/09/07 09:21:50;;;;;;;5.10;3.10;;;21.40;99.90;;;;;;4991445;28;20042;-78
2021/09/07 09:24:17;;;;;;;5.32;3.25;;;21.40;99.90;;;;;;5009141;28;20068;-77
2021/09/07 09:27:00;;;;;;;5.60;3.58;;;21.50;99.90;;;;;;4993681;28;20050;-76
2021/09/07 09:29:29;;;;;;;4.78;3.00;;;21.60;99.90;;;;;;5003221;28;20061;-77
2021/09/07 09:32:01;;;;;;;5.20;3.15;;;21.70;99.90;;;;;;5005157;28;20360;-77
2021/09/07 09:34:28;;;;;;;7.47;3.00;;;21.80;99.90;;;;;;5009721;28;20053;-76
2021/09/07 09:37:07;;;;;;;3.83;2.63;;;21.80;99.90;;;;;;5011041;28;20088;-77
2021/09/07 09:39:53;;;;;;;5.07;3.35;;;21.90;99.90;;;;;;5008472;28;20085;-77
2021/09/07 09:42:26;;;;;;;5.15;3.33;;;21.90;99.90;;;;;;5008026;28;20038;-74
2021/09/07 09:45:08;;;;;;;6.07;3.10;;;21.90;99.90;;;;;;4994366;28;20483;-76
2021/09/07 09:47:40;;;;;;;8.73;3.45;;;21.90;99.90;;;;;;5009489;28;20038;-74
2021/09/07 09:50:07;;;;;;;4.85;2.53;;;22.10;99.90;;;;;;5009667;28;20061;-75
2021/09/07 09:52:35;;;;;;;4.82;2.83;;;22.20;99.90;;;;;;5009433;28;20129;-75
2021/09/07 09:55:03;;;;;;;8.02;2.97;;;22.30;99.90;;;;;;5005469;28;20046;-77
2021/09/07 09:57:29;;;;;;;4.18;3.25;;;22.30;99.90;;;;;;4992335;28;20046;-75
2021/09/07 09:59:55;;;;;;;5.53;2.60;;;22.40;99.90;;;;;;5011228;28;20129;-75
2021/09/07 10:02:21;;;;;;;5.47;3.22;;;22.40;99.90;;;;;;5007867;28;20100;-77
2021/09/07 10:04:48;;;;;;;5.65;3.05;;;22.50;99.90;;;;;;5009599;28;20053;-75
2021/09/07 10:07:13;;;;;;;4.82;3.67;;;22.60;99.90;;;;;;5006310;28;20049;-75
2021/09/07 10:09:41;;;;;;;7.35;3.45;;;22.70;99.90;;;;;;5005496;28;20046;-78
2021/09/07 10:12:12;;;;;;;4.20;3.40;;;22.80;99.90;;;;;;5009220;28;20077;-76
2021/09/07 10:14:43;;;;;;;8.02;3.17;;;23.00;99.90;;;;;;5008668;28;20045;-76
2021/09/07 10:17:28;;;;;;;6.38;3.13;;;22.90;99.90;;;;;;4993064;28;20056;-75
2021/09/07 10:25:48;;;;;;;7.18;3.95;;;23.10;99.90;;;;;;5004474;28;20141;-76
2021/09/07 10:28:36;;;;;;;3.90;2.78;;;23.10;99.90;;;;;;5008509;28;20129;-76
2021/09/07 10:31:08;;;;;;;4.45;2.38;;;23.20;99.90;;;;;;5002634;28;20043;-75
2021/09/07 10:33:37;;;;;;;8.93;4.45;;;23.20;99.90;;;;;;5008304;28;20038;-76
2021/09/07 10:36:09;;;;;;;7.40;3.60;;;23.30;99.90;;;;;;5011339;28;20045;-76
2021/09/07 10:38:37;;;;;;;5.68;3.33;;;23.30;99.90;;;;;;5009421;28;20045;-76
2021/09/07 10:41:03;;;;;;;4.25;3.35;;;23.30;99.90;;;;;;5010322;28;20049;-77
2021/09/07 10:43:48;;;;;;;6.80;3.38;;;23.40;99.90;;;;;;5009367;28;20054;-77
2021/09/07 10:46:16;;;;;;;4.55;3.30;;;23.60;99.90;;;;;;5002500;28;20133;-74
2021/09/07 10:48:42;;;;;;;5.82;3.67;;;23.60;99.90;;;;;;5007031;28;20046;-74
2021/09/07 10:51:07;;;;;;;8.27;3.20;;;23.70;99.90;;;;;;5006835;28;20661;-78
2021/09/07 10:53:33;;;;;;;5.20;2.53;;;23.70;99.90;;;;;;4988857;28;20149;-75
2021/09/07 10:56:25;;;;;;;9.10;3.60;;;23.80;99.90;;;;;;4990678;28;20112;-76
2021/09/07 10:58:51;;;;;;;4.43;3.05;;;24.00;99.90;;;;;;5008644;28;20073;-77
2021/09/07 11:01:28;;;;;;;5.32;3.30;;;24.10;99.90;;;;;;5008313;28;20049;-76
2021/09/07 11:04:32;;;;;;;5.70;3.58;;;24.20;99.90;;;;;;5007160;28;20507;-77
2021/09/07 11:06:59;;;;;;;5.53;3.17;;;24.20;99.90;;;;;;4992553;28;20053;-76
2021/09/07 11:09:53;;;;;;;3.80;3.08;;;24.30;99.90;;;;;;5008064;28;20660;-74
2021/09/07 11:12:33;;;;;;;5.60;3.67;;;24.40;99.90;;;;;;5008029;28;20049;-76
2021/09/07 11:15:07;;;;;;;4.65;2.97;;;24.60;99.90;;;;;;5007688;28;20050;-76
2021/09/07 11:17:34;;;;;;;4.32;2.80;;;24.70;99.90;;;;;;5007091;28;20057;-76
2021/09/07 11:20:02;;;;;;;3.33;2.88;;;24.70;99.90;;;;;;5007797;28;20050;-76
2021/09/07 11:22:32;;;;;;;5.70;3.30;;;24.60;99.90;;;;;;5007705;28;20055;-76
2021/09/07 11:25:09;;;;;;;5.28;2.75;;;24.60;99.90;;;;;;5036356;28;20581;-77
2021/09/07 11:27:50;;;;;;;4.95;3.05;;;24.60;99.90;;;;;;5001897;28;20107;-76
2021/09/07 11:30:24;;;;;;;5.43;3.67;;;24.50;99.90;;;;;;4989436;28;20061;-74
2021/09/07 11:32:58;;;;;;;6.65;3.72;;;24.50;99.90;;;;;;5005939;28;20046;-75
2021/09/07 11:35:25;;;;;;;7.07;3.15;;;24.40;99.90;;;;;;5009401;28;20124;-74
2021/09/07 11:38:05;;;;;;;11.27;3.03;;;24.40;99.90;;;;;;5006105;28;20046;-76
2021/09/07 11:40:32;;;;;;;6.63;3.25;;;24.40;99.90;;;;;;5004010;28;20053;-77
2021/09/07 11:42:58;;;;;;;7.43;3.25;;;24.50;99.90;;;;;;5017939;28;20069;-76
2021/09/07 11:45:33;;;;;;;7.88;4.72;;;24.50;99.90;;;;;;5001557;28;20081;-75
2021/09/07 11:48:00;;;;;;;7.45;3.55;;;24.60;99.90;;;;;;4991249;28;20046;-78
2021/09/07 11:50:30;;;;;;;5.03;3.15;;;24.60;99.90;;;;;;4973271;28;20129;-75
2021/09/07 11:52:57;;;;;;;7.35;3.53;;;24.60;99.90;;;;;;5007498;28;20128;-78
2021/09/07 11:55:48;;;;;;;6.65;3.53;;;24.70;99.90;;;;;;5039296;28;20042;-75
2021/09/07 11:58:35;;;;;;;5.57;3.42;;;24.90;99.90;;;;;;5004177;28;20046;-74
2021/09/07 12:01:06;;;;;;;4.38;2.78;;;24.90;99.90;;;;;;5011311;28;20124;-75
2021/09/07 12:03:49;;;;;;;6.60;3.05;;;25.00;99.90;;;;;;5009489;28;20050;-76
2021/09/07 12:06:17;;;;;;;6.65;3.08;;;25.10;99.90;;;;;;5010200;28;20057;-73
2021/09/07 12:08:48;;;;;;;4.63;3.08;;;25.20;99.90;;;;;;5008370;28;20053;-75
2021/09/07 12:11:29;;;;;;;7.30;2.88;;;25.40;99.90;;;;;;5002643;28;20046;-79
2021/09/07 12:14:07;;;;;;;6.47;2.85;;;25.70;99.90;;;;;;5002435;28;20049;-77
2021/09/07 12:16:47;;;;;;;6.60;3.42;;;25.80;99.90;;;;;;5002574;28;20116;-78
2021/09/07 12:19:23;;;;;;;6.28;3.38;;;25.90;99.90;;;;;;5006899;28;20038;-77
2021/09/07 12:22:26;;;;;;;8.68;3.47;;;26.00;99.90;;;;;;4991572;28;20049;-76
2021/09/07 12:25:02;;;;;;;5.88;3.22;;;26.00;98.80;;;;;;5004652;28;20476;-76
2021/09/07 12:27:47;;;;;;;5.43;2.90;;;26.00;99.90;;;;;;5004516;28;20162;-76
2021/09/07 12:30:28;;;;;;;5.32;3.40;;;26.20;98.90;;;;;;5008183;28;20107;-75
2021/09/07 12:33:19;;;;;;;6.03;3.42;;;26.30;99.90;;;;;;5019645;28;20129;-76
2021/09/07 12:35:51;;;;;;;4.40;3.15;;;26.50;99.10;;;;;;5005215;28;20076;-75
2021/09/07 12:38:22;;;;;;;6.93;3.00;;;26.70;99.90;;;;;;4991549;28;20050;-76
2021/09/07 12:40:57;;;;;;;3.70;2.58;;;26.70;99.90;;;;;;4995712;28;20046;-76
2021/09/07 12:43:28;;;;;;;5.72;3.28;;;26.80;98.10;;;;;;5006427;28;20124;-77
2021/09/07 12:45:56;;;;;;;5.60;3.03;;;27.10;99.90;;;;;;4995539;28;20052;-76
2021/09/07 12:48:22;;;;;;;4.18;2.33;;;27.40;99.90;;;;;;5006254;28;20050;-75
2021/09/07 12:50:49;;;;;;;5.78;3.28;;;27.70;99.90;;;;;;4991473;28;20060;-75
2021/09/07 12:53:23;;;;;;;5.15;3.20;;;28.00;98.80;;;;;;5019848;28;20120;-76
2021/09/07 12:55:49;;;;;;;4.43;3.30;;;28.10;96.20;;;;;;4999597;28;20123;-76
2021/09/07 12:58:15;;;;;;;5.88;2.55;;;28.20;96.20;;;;;;5008280;28;20046;-76
2021/09/07 13:00:43;;;;;;;5.13;3.15;;;28.30;96.00;;;;;;4989454;28;20042;-79
2021/09/07 13:03:11;;;;;;;4.75;3.13;;;28.50;94.40;;;;;;5009709;28;20070;-77
2021/09/07 13:05:38;;;;;;;5.95;3.65;;;28.40;90.60;;;;;;4991308;28;20137;-75
2021/09/07 13:08:04;;;;;;;4.72;3.38;;;28.50;92.50;;;;;;4996935;28;20074;-76
2021/09/07 13:10:29;;;;;;;6.07;3.25;;;28.80;92.80;;;;;;5005949;28;20104;-76
2021/09/07 13:12:55;;;;;;;5.32;3.20;;;29.00;92.10;;;;;;5007698;28;20037;-75